MDT,Max TemperatureF,Mean TemperatureF,Min TemperatureF,Max Dew PointF,MeanDew PointF,Min DewpointF,Max Humidity, Mean Humidity, Min Humidity, Max Sea Level PressureIn, Mean Sea Level PressureIn, Min Sea Level PressureIn, Max VisibilityMiles, Mean VisibilityMiles, Min VisibilityMiles, Max Wind SpeedMPH, Mean Wind SpeedMPH, Max Gust SpeedMPH,PrecipitationIn, CloudCover, Events, WindDirDegrees
2013-8-1,80,68,57,55,49,45,94,55,30,30.44,30.38,30.29,10,10,3,25,7,37,0.09,3,Thunderstorm,268
2013-8-2,82,68,53,57,52,45,94,66,30,30.39,30.29,30.21,10,10,2,16,3,21,0.06,3,Thunderstorm,336
2013-8-3,82,70,57,57,54,48,94,67,30,30.39,30.32,30.25,10,10,10,21,6,26,0.00,5,Thunderstorm,296
2013-8-4,84,68,53,54,51,46,88,60,30,30.44,30.35,30.27,10,10,10,18,5,25,0.00,1,,322
2013-8-5,82,70,57,55,52,45,94,68,26,30.44,30.32,30.21,10,10,9,20,6,26,0.04,3,Thunderstorm,344
2013-8-6,84,70,55,54,48,45,77,57,25,30.31,30.27,30.21,10,10,10,23,8,26,0.00,3,Thunderstorm,4
2013-8-7,78,63,48,52,49,45,88,67,36,30.28,30.24,30.18,10,10,10,24,6,31,0.02,3,Thunderstorm,2
2013-8-8,73,60,46,52,48,43,93,70,36,30.32,30.23,30.19,10,10,10,21,4,30,0.16,4,Thunderstorm,350
2013-8-9,69,56,44,48,45,39,93,69,35,30.41,30.34,30.29,10,10,10,25,4,33,0.16,1,,357
2013-8-10,78,63,48,48,46,39,87,61,24,30.52,30.43,30.32,10,10,10,24,8,32,0.00,1,Thunderstorm,162
2013-8-11,78,61,44,48,43,36,87,59,21,30.45,30.37,30.27,10,10,10,10,4,,0.00,1,,325
2013-8-12,73,64,55,55,48,43,88,57,38,30.39,30.35,30.30,10,10,10,20,7,24,0.05,4,,307
2013-8-13,75,60,46,52,47,41,93,65,34,30.40,30.36,30.30,10,10,8,22,7,30,0.10,1,Thunderstorm,48
2013-8-14,80,63,46,52,44,36,76,54,20,30.42,30.35,30.27,10,10,10,16,8,22,0.05,1,Thunderstorm,63
2013-8-15,84,65,46,46,38,25,71,44,12,30.40,30.34,30.28,10,10,8,18,8,33,0.00,1,,15
2013-8-16,87,70,53,43,34,25,48,28,10,30.41,30.35,30.29,10,10,10,20,6,26,0.00,0,,34
2013-8-17,89,72,55,43,36,28,47,30,11,30.41,30.34,30.24,10,10,10,24,7,28,0.00,1,,101
2013-8-18,84,68,51,52,42,34,72,43,21,30.39,30.35,30.28,10,10,9,18,4,41,0.00,2,Thunderstorm,69
2013-8-19,84,67,50,55,47,39,72,54,25,30.38,30.33,30.27,10,10,10,23,4,28,0.02,2,Thunderstorm,20
2013-8-20,86,67,48,50,45,37,82,49,19,30.36,30.30,30.23,10,10,10,20,6,31,0.00,2,Thunderstorm,58
2013-8-21,84,68,51,54,48,43,77,54,27,30.39,30.32,30.27,10,10,10,23,5,29,0.01,,Thunderstorm,105
2013-8-22,89,70,50,54,49,45,88,62,22,30.40,30.34,30.26,10,10,10,20,6,36,0.01,,Thunderstorm,43
2013-8-23,82,64,46,48,43,37,87,49,21,30.37,30.30,30.19,10,10,10,20,5,23,0.00,,,254
2013-8-24,78,66,53,57,49,45,77,58,30,30.40,30.33,30.28,10,10,5,20,5,32,0.02,,Thunderstorm,127
2013-8-25,78,66,55,59,52,46,88,68,39,30.46,30.41,30.35,10,10,2,24,5,38,0.18,,Thunderstorm,140
2013-8-26,84,68,51,54,50,45,94,61,26,30.47,30.41,30.33,10,10,9,16,5,21,0.00,,,133
2013-8-27,86,68,51,50,46,43,82,50,22,30.40,30.33,30.23,10,10,8,17,3,20,0.00,2,Thunderstorm,159
2013-8-28,87,68,50,46,43,36,76,46,17,30.38,30.32,30.24,10,10,10,18,5,20,0.00,1,Thunderstorm,119
2013-8-29,87,69,51,48,45,43,76,48,21,30.43,30.38,30.31,10,10,10,17,4,21,0.00,1,Thunderstorm,32
2013-8-30,89,70,50,48,44,36,82,48,15,30.43,30.36,30.26,10,10,10,20,4,31,0.00,1,Thunderstorm,96
2013-8-31,82,65,48,50,43,39,71,47,23,30.34,30.28,30.19,10,10,10,23,6,29,0.00,1,Thunderstorm,359